Roosevelt, Washington
Current Conditions -  °F | °C
As of 12:53 PM on Friday 31 Oct 2014 (Local Time) from KHRI Reporting Station
Haze Haze  
Wind Chill: 54°   Ceiling: 5000
Heat Index: 54°   Visibility: 6mi
Dew Point: 51°   Wind: 8mph
Humidity: 90%   Direction: 220°SW
Pressure: 29.78"   Gusts: NA
Location:  45.74°N, 120.21°W
Report Text: KHRI 311953Z AUTO 22007KT 6SM BR FEW011 BKN050 OVC060 12/11 A2978 RMK AO2 RAB13E26 SLP085 P0000 T01220106
Loading
Personal Weather Stations






























Interactive Weather Map
Tropical Storm Tracking
New forecast layout! Learn more

10-Day Weather Forecast

Advertisements
Track Severe Weather on mobile